Time;durP1;ratioP1;P1;durP2;ratioP2;P2;SDS_P1;SDS_P2;PMS_P1;PMS_P2;Temp;Humidity;BMP_temperature;BMP_pressure;BME280_temperature;BME280_humidity;BME280_pressure;Samples;Min_cycle;Max_cycle;Signal;HPM_P1;HPM_P2
2022/11/14 00:05:34;;;;;;;53.70;23.00;;;;;;;5.47;100.00;100183.82;4273792;82;21537;-85
2022/11/14 00:12:01;;;;;;;44.27;19.87;;;;;;;5.40;100.00;100183.48;4272008;82;21080;-85
2022/11/14 00:18:27;;;;;;;46.85;22.37;;;;;;;5.40;100.00;100175.34;4265347;82;21048;-85
2022/11/14 00:25:26;;;;;;;46.63;21.50;;;;;;;5.37;100.00;100171.86;4276262;82;21137;-86
2022/11/14 00:39:10;;;;;;;44.98;21.82;;;;;;;5.36;100.00;100178.41;4172753;84;21112;-86
2022/11/14 00:45:35;;;;;;;42.15;20.02;;;;;;;5.33;100.00;100174.16;4181231;83;21026;-86
2022/11/14 00:52:07;;;;;;;43.65;19.95;;;;;;;5.33;100.00;100176.33;4154840;84;21023;-85
2022/11/14 00:58:42;;;;;;;43.70;20.37;;;;;;;5.40;100.00;100173.98;4103385;84;21797;-86
2022/11/14 01:05:02;;;;;;;42.23;18.73;;;;;;;5.39;100.00;100163.40;4183125;83;21054;-85
2022/11/14 01:11:43;;;;;;;37.30;18.32;;;;;;;5.38;100.00;100159.91;4178099;83;22088;-86
2022/11/14 01:25:19;;;;;;;46.20;18.60;;;;;;;5.36;100.00;100142.30;4199395;83;21046;-86
2022/11/14 01:39:04;;;;;;;34.30;17.12;;;;;;;5.34;100.00;100146.69;4119887;85;21326;-85
2022/11/14 01:52:55;;;;;;;28.42;15.40;;;;;;;5.14;100.00;100128.23;4156007;84;21130;-85
2022/11/14 02:33:38;;;;;;;28.35;15.15;;;;;;;5.08;100.00;100105.06;4097970;85;22143;-86
2022/11/14 02:40:06;;;;;;;30.30;15.50;;;;;;;5.05;100.00;100096.73;4243828;82;21037;-85
2022/11/14 02:46:57;;;;;;;30.05;15.58;;;;;;;5.06;100.00;100095.64;4265122;82;21049;-86
2022/11/14 02:53:25;;;;;;;29.55;15.05;;;;;;;5.08;100.00;100090.67;4307135;82;21064;-85
2022/11/14 03:00:04;;;;;;;33.30;15.15;;;;;;;5.10;100.00;100080.31;4204786;85;21047;-85
2022/11/14 03:06:30;;;;;;;37.03;18.17;;;;;;;5.11;100.00;100079.19;4251156;82;20992;-86
2022/11/14 03:12:57;;;;;;;33.00;15.68;;;;;;;5.15;100.00;100084.26;4270611;82;22379;-86
2022/11/14 03:20:21;;;;;;;32.05;15.20;;;;;;;5.16;100.00;100071.73;4272953;82;21057;-86
2022/11/14 03:33:40;;;;;;;29.10;15.08;;;;;;;5.12;100.00;100078.09;4105630;85;21145;-85
2022/11/14 03:40:00;;;;;;;29.05;14.58;;;;;;;5.10;100.00;100082.48;4088542;86;21019;-85
2022/11/14 03:54:03;;;;;;;32.03;13.65;;;;;;;5.02;100.00;100075.09;4208701;83;22118;-85
2022/11/14 04:00:55;;;;;;;29.48;14.47;;;;;;;4.98;100.00;100074.10;4213022;84;21588;-86
2022/11/14 04:07:21;;;;;;;32.23;16.87;;;;;;;5.01;100.00;100055.06;4210839;84;21043;-86
2022/11/14 04:14:15;;;;;;;32.48;14.95;;;;;;;5.02;100.00;100052.58;4215616;84;20960;-86
2022/11/14 04:20:44;;;;;;;27.93;13.78;;;;;;;5.01;100.00;100050.44;4195768;84;21037;-85
2022/11/14 04:27:12;;;;;;;32.13;15.23;;;;;;;5.00;100.00;100052.89;4163290;85;21031;-85
2022/11/14 04:47:59;;;;;;;24.00;12.63;;;;;;;5.00;100.00;100046.11;4188206;83;21031;-85
2022/11/14 04:54:41;;;;;;;25.50;12.80;;;;;;;5.00;100.00;100048.02;4204525;85;20972;-86
2022/11/14 05:09:17;;;;;;;25.43;14.30;;;;;;;4.90;100.00;100026.59;4144269;81;34697;-85
2022/11/14 05:15:50;;;;;;;30.08;15.88;;;;;;;4.89;100.00;100017.64;4042989;88;21001;-86
2022/11/14 05:22:18;;;;;;;28.60;13.85;;;;;;;4.88;100.00;100027.45;4097249;87;21496;-85
2022/11/14 05:28:47;;;;;;;27.27;13.93;;;;;;;4.93;100.00;100030.04;4042414;88;21940;-86
2022/11/14 05:35:30;;;;;;;30.82;14.70;;;;;;;4.96;100.00;100020.73;4106812;85;21009;-85
2022/11/14 05:42:09;;;;;;;22.95;13.45;;;;;;;4.96;100.00;100026.70;4103308;85;20982;-85
2022/11/14 05:48:35;;;;;;;26.25;14.23;;;;;;;4.96;100.00;100038.36;4054263;85;21056;-86
2022/11/14 06:02:09;;;;;;;30.82;14.70;;;;;;;4.90;100.00;100016.55;4106321;85;21004;-85
2022/11/14 06:08:32;;;;;;;24.37;14.33;;;;;;;4.88;100.00;100027.45;4137841;85;21045;-85
2022/11/14 06:14:52;;;;;;;33.98;17.48;;;;;;;4.87;100.00;100027.22;4121035;85;21080;-85
2022/11/14 06:21:37;;;;;;;27.15;15.10;;;;;;;4.86;100.00;100031.84;4044544;88;21676;-86
2022/11/14 06:28:10;;;;;;;28.65;15.95;;;;;;;4.84;100.00;100027.27;4070916;86;21030;-85
2022/11/14 06:35:28;;;;;;;23.38;13.80;;;;;;;4.83;100.00;100029.75;4169023;85;21070;-85
2022/11/14 06:49:12;;;;;;;30.32;15.58;;;;;;;4.82;100.00;100028.94;4139393;84;21548;-86
2022/11/14 07:02:56;;;;;;;25.70;13.45;;;;;;;4.83;100.00;100014.83;4143426;84;21478;-85
2022/11/14 07:09:19;;;;;;;30.25;14.47;;;;;;;4.80;100.00;100026.31;4130579;84;21024;-85
2022/11/14 07:15:53;;;;;;;27.00;15.80;;;;;;;4.78;100.00;100035.31;4076118;87;21606;-85
2022/11/14 07:22:28;;;;;;;29.63;14.73;;;;;;;4.82;100.00;100029.52;4128301;85;20979;-85
2022/11/14 07:29:07;;;;;;;32.48;15.98;;;;;;;4.88;100.00;100041.83;4074296;87;22047;-85
2022/11/14 07:36:12;;;;;;;29.25;14.60;;;;;;;4.91;100.00;100034.42;4126533;85;20999;-85
2022/11/14 07:42:38;;;;;;;34.38;16.37;;;;;;;4.89;100.00;100029.86;4130922;86;20990;-85
2022/11/14 07:49:36;;;;;;;24.15;13.55;;;;;;;4.83;100.00;100029.75;4175119;84;21063;-86
2022/11/14 07:56:10;;;;;;;27.02;14.95;;;;;;;4.77;100.00;100028.30;4121241;86;21027;-85
2022/11/14 08:02:36;;;;;;;30.40;14.25;;;;;;;4.77;100.00;100016.89;4076164;84;21088;-85
2022/11/14 08:08:59;;;;;;;30.17;17.07;;;;;;;4.83;100.00;100004.79;4148527;84;21031;-85
2022/11/14 08:15:46;;;;;;;28.38;15.65;;;;;;;4.89;100.00;100001.95;4142848;84;21485;-86
2022/11/14 08:29:44;;;;;;;35.60;16.95;;;;;;;4.98;100.00;99986.49;4132022;84;21643;-86
2022/11/14 08:36:15;;;;;;;26.52;14.00;;;;;;;5.03;100.00;99975.50;4169025;84;21032;-85
2022/11/14 08:42:59;;;;;;;31.00;17.02;;;;;;;5.07;100.00;99972.39;4107261;87;21063;-86
2022/11/14 08:49:32;;;;;;;27.42;16.07;;;;;;;4.94;100.00;99970.58;4163597;85;21018;-86
2022/11/14 08:56:04;;;;;;;28.65;15.90;;;;;;;5.01;100.00;99969.58;4113781;86;21156;-85
2022/11/14 09:02:30;;;;;;;27.30;15.40;;;;;;;5.09;100.00;99967.45;4155837;85;21063;-85
2022/11/14 09:08:50;;;;;;;28.17;17.02;;;;;;;5.13;100.00;99973.84;4114775;84;22069;-84
2022/11/14 09:50:18;;;;;;;36.15;19.55;;;;;;;5.31;100.00;99946.41;4110666;85;21034;-84
2022/11/14 09:57:06;;;;;;;31.75;18.23;;;;;;;5.48;100.00;99942.35;4117706;85;21113;-85
2022/11/14 10:25:04;;;;;;;32.55;19.17;;;;;;;5.72;100.00;99927.75;4109956;85;20988;-86
2022/11/14 10:32:42;;;;;;;35.95;20.40;;;;;;;5.77;100.00;99918.08;4101131;85;21012;-87
2022/11/14 11:29:17;;;;;;;41.13;20.82;;;;;;;5.95;100.00;99857.17;4095523;81;21105;-85
2022/11/14 11:35:37;;;;;;;33.65;19.62;;;;;;;5.87;100.00;99857.98;4132698;85;21554;-85
2022/11/14 11:56:33;;;;;;;34.27;20.23;;;;;;;5.64;100.00;99854.39;4123624;84;21022;-86
2022/11/14 12:03:50;;;;;;;37.28;21.02;;;;;;;5.54;100.00;99839.26;4068017;87;21069;-86
2022/11/14 12:25:29;;;;;;;40.88;22.67;;;;;;;5.50;100.00;99819.27;4115247;85;20994;-85
2022/11/14 12:39:57;;;;;;;39.85;22.87;;;;;;;5.38;100.00;99816.42;3984003;86;21046;-86
2022/11/14 12:46:21;;;;;;;44.33;24.60;;;;;;;5.39;100.00;99804.98;4057411;86;21193;-85
2022/11/14 12:52:50;;;;;;;49.83;27.00;;;;;;;5.44;100.00;99795.31;4013326;87;21129;-85
2022/11/14 12:59:53;;;;;;;50.38;27.80;;;;;;;5.44;100.00;99785.81;4050807;85;21098;-85
2022/11/14 13:06:57;;;;;;;54.45;27.67;;;;;;;5.44;100.00;99784.45;4071069;84;22212;-85
2022/11/14 13:56:53;;;;;;;37.58;21.52;;;;;;;5.41;100.00;99746.54;4134575;86;21027;-85
2022/11/14 14:03:51;;;;;;;61.65;32.65;;;;;;;5.44;100.00;99739.10;4136596;86;21014;-87
2022/11/14 14:10:49;;;;;;;63.68;33.60;;;;;;;5.38;100.00;99732.25;4191245;83;21106;-87
2022/11/14 14:24:50;;;;;;;54.13;28.45;;;;;;;5.32;100.00;99728.67;4064497;85;20217;-86
2022/11/14 14:31:40;;;;;;;49.42;28.25;;;;;;;5.28;100.00;99721.72;4054885;84;21070;-86
2022/11/14 14:38:39;;;;;;;45.25;24.57;;;;;;;5.23;100.00;99708.31;4150428;85;21016;-86
2022/11/14 14:59:30;;;;;;;65.80;31.30;;;;;;;5.31;100.00;99689.08;4160305;84;21082;-86
2022/11/14 15:06:29;;;;;;;58.08;31.00;;;;;;;5.34;100.00;99687.84;4145029;84;21156;-84
2022/11/14 15:13:34;;;;;;;48.97;26.30;;;;;;;5.37;100.00;99683.70;4081479;86;21014;-86
2022/11/14 15:34:46;;;;;;;66.90;32.80;;;;;;;5.39;100.00;99678.17;3974479;87;21038;-86
2022/11/14 15:41:26;;;;;;;60.45;31.17;;;;;;;5.37;100.00;99678.28;4028463;88;22010;-86
2022/11/14 15:48:03;;;;;;;65.75;32.65;;;;;;;5.32;100.00;99677.89;4345880;81;21579;-87
2022/11/14 15:54:58;;;;;;;61.20;32.00;;;;;;;5.34;100.00;99680.28;3900482;89;21723;-86
2022/11/14 16:01:26;;;;;;;61.98;31.33;;;;;;;5.31;100.00;99672.20;4082203;84;21010;-86
2022/11/14 16:07:52;;;;;;;51.37;28.00;;;;;;;5.29;100.00;99668.23;4107103;84;21642;-87
2022/11/14 16:14:19;;;;;;;54.50;29.90;;;;;;;5.27;100.00;99674.54;4057650;88;21018;-86
2022/11/14 16:21:53;;;;;;;60.30;29.72;;;;;;;5.23;100.00;99676.31;4129607;83;21498;-86
2022/11/14 16:28:42;;;;;;;62.85;29.95;;;;;;;5.16;100.00;99676.00;4283474;83;21960;-86
2022/11/14 16:35:31;;;;;;;64.10;31.55;;;;;;;5.10;100.00;99667.80;4317180;81;21538;-86
2022/11/14 16:42:19;;;;;;;54.60;28.75;;;;;;;5.09;100.00;99676.48;4254744;82;20958;-86
2022/11/14 17:02:33;;;;;;;67.50;30.60;;;;;;;4.96;100.00;99665.83;4260097;81;21052;-86
2022/11/14 17:08:59;;;;;;;60.85;29.63;;;;;;;5.01;100.00;99662.95;4290479;81;21066;-86
2022/11/14 17:15:26;;;;;;;53.15;25.88;;;;;;;5.00;100.00;99654.55;4306752;81;21009;-87
2022/11/14 17:30:01;;;;;;;66.50;29.07;;;;;;;4.93;100.00;99659.14;4162634;84;22033;-86
2022/11/14 17:36:34;;;;;;;64.40;30.40;;;;;;;4.89;100.00;99660.88;4174416;81;21046;-86
2022/11/14 17:43:00;;;;;;;59.65;29.55;;;;;;;4.91;100.00;99651.06;4302376;81;21048;-86
2022/11/14 17:49:26;;;;;;;61.77;30.43;;;;;;;4.92;100.00;99647.25;4284793;81;21072;-86
2022/11/14 17:55:56;;;;;;;66.42;31.80;;;;;;;4.91;100.00;99637.50;4327060;81;21021;-85
2022/11/14 18:02:22;;;;;;;72.55;31.23;;;;;;;4.90;100.00;99628.58;4286030;81;21081;-86
2022/11/14 18:08:51;;;;;;;68.47;30.45;;;;;;;4.91;100.00;99623.39;4303177;81;21038;-86
2022/11/14 18:15:14;;;;;;;71.62;30.97;;;;;;;4.92;100.00;99630.39;4252694;81;20993;-86
2022/11/14 18:42:47;;;;;;;74.53;34.48;;;;;;;4.93;100.00;99610.30;4225109;84;21042;-85
2022/11/14 18:49:17;;;;;;;78.97;32.67;;;;;;;4.94;100.00;99605.11;4166571;83;20998;-85
2022/11/14 19:02:56;;;;;;;86.57;33.30;;;;;;;4.93;100.00;99592.67;4140344;84;21129;-85
2022/11/14 19:09:21;;;;;;;76.33;33.15;;;;;;;4.93;100.00;99588.59;4008324;87;21568;-85
2022/11/14 19:16:17;;;;;;;72.17;33.78;;;;;;;4.93;100.00;99581.81;4081893;87;21027;-85
2022/11/14 19:22:55;;;;;;;66.45;32.40;;;;;;;4.90;100.00;99579.75;4071978;86;21051;-85
2022/11/14 19:36:33;;;;;;;64.07;30.45;;;;;;;4.91;100.00;99571.03;4111418;85;21062;-85
2022/11/14 19:43:02;;;;;;;67.53;34.33;;;;;;;4.90;100.00;99565.38;4127723;84;21034;-86
2022/11/14 19:49:37;;;;;;;70.85;33.42;;;;;;;4.85;100.00;99562.28;4167800;84;21039;-85
2022/11/14 19:56:35;;;;;;;70.08;30.43;;;;;;;4.90;100.00;99558.05;4087813;87;21078;-85
2022/11/14 20:03:21;;;;;;;80.03;31.48;;;;;;;4.96;100.00;99562.17;4137367;84;21066;-85
2022/11/14 20:09:48;;;;;;;59.53;29.10;;;;;;;4.89;100.00;99555.08;4112414;84;21054;-85
2022/11/14 20:16:25;;;;;;;58.58;27.67;;;;;;;4.78;100.00;99550.57;4136198;84;21037;-85
2022/11/14 20:38:41;;;;;;;60.90;30.32;;;;;;;4.66;100.00;99530.11;4153849;84;20978;-85
2022/11/14 20:45:37;;;;;;;68.12;30.45;;;;;;;4.65;100.00;99527.14;4149453;84;21090;-85
2022/11/14 20:59:37;;;;;;;;;;;;;;;4.71;100.00;99512.87;4149729;84;20990;-85
2022/11/14 21:20:56;;;;;;;52.58;26.00;;;;;;;4.49;100.00;99496.81;4107156;84;20998;-86
2022/11/14 21:27:21;;;;;;;54.15;25.65;;;;;;;4.48;100.00;99499.27;4163530;85;21106;-85
2022/11/14 21:33:49;;;;;;;57.95;28.57;;;;;;;4.49;100.00;99490.03;4140038;84;21048;-85
2022/11/14 22:09:13;;;;;;;57.53;26.60;;;;;;;4.39;100.00;99473.55;4218845;81;21130;-86
2022/11/14 22:15:49;;;;;;;62.33;24.75;;;;;;;4.36;100.00;99477.45;4271737;81;21532;-85
2022/11/14 22:22:25;;;;;;;49.27;23.42;;;;;;;4.37;100.00;99473.65;4182650;83;21070;-86
2022/11/14 22:29:43;;;;;;;50.15;25.17;;;;;;;4.37;100.00;99468.23;4218480;83;25691;-86
2022/11/14 22:43:21;;;;;;;49.48;24.47;;;;;;;4.37;100.00;99466.87;4208765;85;21086;-86
2022/11/14 22:50:04;;;;;;;47.83;24.37;;;;;;;4.33;100.00;99459.94;4167341;83;21034;-86
2022/11/14 23:04:30;;;;;;;51.05;25.00;;;;;;;4.33;100.00;99448.30;4054577;86;21475;-85
2022/11/14 23:11:06;;;;;;;48.30;25.68;;;;;;;4.31;100.00;99448.61;4093258;86;21668;-86
2022/11/14 23:17:59;;;;;;;43.52;22.98;;;;;;;4.24;100.00;99442.10;4068633;86;22394;-86
2022/11/14 23:24:30;;;;;;;49.73;22.45;;;;;;;4.20;100.00;99434.36;4068275;86;21124;-86
2022/11/14 23:30:59;;;;;;;51.70;24.72;;;;;;;4.15;100.00;99431.27;4071419;86;21673;-85
2022/11/14 23:37:27;;;;;;;52.95;23.62;;;;;;;4.12;100.00;99416.23;4086958;86;21060;-86
2022/11/14 23:44:09;;;;;;;59.05;23.35;;;;;;;4.06;100.00;99408.83;4082135;83;21074;-86
2022/11/14 23:50:50;;;;;;;59.15;24.25;;;;;;;4.08;100.00;99402.53;4183481;83;21025;-86
2022/11/14 23:57:15;;;;;;;46.70;21.57;;;;;;;4.08;100.00;99403.88;4195092;83;21163;-86
